Zieglersville, Pennsylvania
Current Conditions -  °F | °C
As of 3:54 AM on Saturday 22 Nov 2014 (Local Time) from KPTW Reporting Station
Clear Clear  
Wind Chill: 17°   Ceiling: Unl
Heat Index: 17°   Visibility: 10mi
Dew Point: 11°   Wind: 0mph
Humidity: 77%   Direction: NA
Pressure: 30.51"   Gusts: NA
Location:  40.2761°N, 75.4823°W
Report Text: KPTW 220854Z AUTO 00000KT 10SM CLR M08/M12 A3051 RMK AO2 SLP332 T10831117 57005
Loading
Personal Weather Stations






























Interactive Weather Map New forecast layout! Learn more

10-Day Weather Forecast

Advertisements
Track Severe Weather on mobile